Terminal Aerodrome Forecast
Issued by NWS Charleston, WV

Current Version | Previous Version | Graphics & Text | Print | Product List | Glossary On
Versions: 1 2 3 4 5 6 7 8 9 10 11 12 13 14 15 16 17 18 19 20 21 22 23 24 25 26 27 28 29
197
FTUS41 KRLX 061515 AAB
TAFHTS
TAF AMD
KHTS 061515Z 0615/0712 05005KT 6SM -RA BKN035 OVC050
      TEMPO 0615/0617 2SM -RA OVC005
     FM061700 15009G17KT 5SM -RA OVC015
      TEMPO 0617/0621 2SM -RA OVC007
     FM062100 17008KT 3SM -RA OVC010
     FM062300 24008KT P6SM OVC010
     FM071100 30005KT P6SM BKN025=

USA.gov is the U.S. government's official web portal to all federal, state and local government web resources and services.